CDT,Max TemperatureF,Mean TemperatureF,Min TemperatureF,Max Dew PointF,MeanDew PointF,Min DewpointF,Max Humidity, Mean Humidity, Min Humidity, Max Sea Level PressureIn, Mean Sea Level PressureIn, Min Sea Level PressureIn, Max VisibilityMiles, Mean VisibilityMiles, Min VisibilityMiles, Max Wind SpeedMPH, Mean Wind SpeedMPH, Max Gust SpeedMPH,PrecipitationIn, CloudCover, Events, WindDirDegrees
2013-4-1,44,34,24,30,22,18,92,66,39,30.35,30.26,30.13,10,10,10,25,9,30,0.00,2,,46
2013-4-2,53,39,25,25,22,18,75,52,29,30.33,30.27,30.21,10,10,10,13,5,16,0.00,0,,170
2013-4-3,53,42,31,28,23,21,75,54,32,30.32,30.27,30.22,10,10,10,17,9,23,0.00,0,,190
2013-4-4,63,45,27,35,30,26,92,62,32,30.22,30.15,30.09,10,10,8,14,7,17,0.00,0,,279
2013-4-5,71,55,38,41,33,27,76,50,23,30.12,29.90,29.64,10,10,9,26,15,38,0.00,0,,156
2013-4-6,71,59,46,42,38,33,77,52,26,29.81,29.70,29.60,10,10,10,26,11,39,0.00,2,,291
2013-4-7,70,56,41,50,41,33,86,59,31,29.82,29.72,29.61,10,9,2,32,8,40,0.30,4,Rain-Thunderstorm,212
2013-4-8,67,56,45,59,53,44,100,87,73,29.67,29.63,29.57,10,7,0,22,9,32,0.00,6,Fog,149
2013-4-9,61,42,23,58,33,20,100,93,85,30.11,29.80,29.47,10,4,0,35,25,47,0.86,8,Fog-Rain-Snow-Thunderstorm,10
2013-4-10,30,27,24,27,24,21,100,89,78,30.08,29.98,29.88,10,7,2,31,20,38,0.01,8,Rain-Snow,339
2013-4-11,34,29,24,26,24,21,92,81,69,29.93,29.80,29.72,10,9,3,25,17,30,T,6,Snow,308
2013-4-12,47,37,26,33,27,22,89,71,53,30.05,29.95,29.82,10,10,10,18,10,23,T,3,,310
2013-4-13,64,48,31,48,38,31,96,70,43,30.05,29.79,29.50,10,10,10,23,9,31,T,4,Rain-Thunderstorm,166
2013-4-14,58,47,36,44,35,22,86,59,32,29.74,29.47,29.24,10,10,10,32,16,39,0.00,1,,283
2013-4-15,45,38,31,30,24,19,78,63,48,30.09,29.93,29.74,10,10,9,20,12,24,T,5,,341
2013-4-16,46,41,35,30,27,25,75,62,49,30.24,30.15,30.09,10,10,10,21,14,26,0.00,8,,60
2013-4-17,42,36,30,36,33,29,100,81,62,30.11,29.95,29.83,10,7,2,36,19,44,0.24,8,Rain-Snow-Thunderstorm,23
2013-4-18,36,32,27,29,26,24,92,78,64,30.06,29.91,29.84,10,3,0,33,24,43,0.22,8,Fog-Snow,335
2013-4-19,50,37,24,30,25,20,88,64,39,30.12,30.05,29.99,10,10,10,25,12,32,0.00,1,,319
2013-4-20,51,41,30,31,26,22,78,62,45,30.18,30.11,30.05,10,10,10,24,13,31,0.00,3,,118
2013-4-21,69,52,35,46,37,31,92,61,29,30.11,30.04,29.96,10,10,4,22,10,28,0.14,3,Rain-Thunderstorm,166
2013-4-22,47,39,30,45,36,26,100,93,85,30.28,30.06,29.94,10,5,1,31,18,38,0.91,8,Rain-Snow-Thunderstorm,27
2013-4-23,37,32,26,25,21,17,92,70,47,30.35,30.28,30.23,10,10,10,29,15,35,T,4,,360
2013-4-24,60,42,24,33,25,19,88,56,23,30.27,30.19,30.10,10,10,10,31,10,44,T,1,Rain,271
2013-4-25,70,50,30,35,29,24,85,52,18,30.26,30.13,29.97,10,10,10,26,12,38,0.00,0,,194
2013-4-26,70,58,45,49,40,35,86,59,32,30.18,30.05,29.97,10,10,8,17,7,22,0.00,0,,173
2013-4-27,73,57,41,52,45,39,100,66,31,30.17,30.08,29.93,10,5,0,12,6,18,0.00,2,Fog,197
2013-4-28,83,65,47,51,46,38,93,60,26,29.92,29.77,29.64,10,10,10,29,12,35,0.00,0,,180
2013-4-29,82,68,53,54,44,38,66,46,26,29.78,29.65,29.45,10,10,10,21,9,26,0.00,0,,94
2013-4-30,73,61,48,54,41,30,67,51,35,29.90,29.68,29.45,10,10,10,32,17,38,0.03,3,Rain-Thunderstorm,47